Time;durP1;ratioP1;P1;durP2;ratioP2;P2;SDS_P1;SDS_P2;PMS_P1;PMS_P2;Temp;Humidity;BMP_temperature;BMP_pressure;BME280_temperature;BME280_humidity;BME280_pressure;Samples;Min_cycle;Max_cycle;Signal;HPM_P1;HPM_P2
2022/01/02 00:00:25;;;;;;;2.41;2.21;;;;;;;2.61;83.85;99843.29;458319;115;922658;-70
2022/01/02 00:01:31;;;;;;;3.49;3.23;;;;;;;2.59;83.95;99839.97;455958;115;923073;-71
2022/01/02 00:02:35;;;;;;;3.16;2.86;;;;;;;2.57;84.03;99831.23;460028;114;930627;-71
2022/01/02 00:03:40;;;;;;;2.58;2.38;;;;;;;2.57;84.10;99840.14;457437;115;922979;-71
2022/01/02 00:04:49;;;;;;;2.08;1.98;;;;;;;2.60;84.21;99836.23;457019;115;930851;-71
2022/01/02 00:05:54;;;;;;;2.06;1.95;;;;;;;2.61;84.22;99837.91;455699;114;930333;-71
2022/01/02 00:07:00;;;;;;;1.87;1.77;;;;;;;2.61;84.15;99843.29;454206;115;923104;-71
2022/01/02 00:08:06;;;;;;;1.86;1.76;;;;;;;2.60;84.12;99831.69;454549;115;923004;-72
2022/01/02 00:09:13;;;;;;;1.99;1.89;;;;;;;2.59;84.08;99835.42;455085;115;922677;-71
2022/01/02 00:10:20;;;;;;;2.07;1.96;;;;;;;2.60;84.14;99822.77;454196;114;922594;-71
2022/01/02 00:11:25;;;;;;;2.32;2.17;;;;;;;2.60;84.19;99823.61;454512;116;923183;-71
2022/01/02 00:12:30;;;;;;;1.75;1.65;;;;;;;2.60;84.14;99822.77;454268;116;922731;-71
2022/01/02 00:13:36;;;;;;;2.19;2.08;;;;;;;2.60;84.14;99820.08;455086;115;930908;-71
2022/01/02 00:14:46;;;;;;;2.24;2.04;;;;;;;2.59;84.13;99818.44;455659;115;922527;-71
2022/01/02 00:15:56;;;;;;;1.96;1.86;;;;;;;2.57;84.20;99813.23;460234;112;922638;-70
2022/01/02 00:17:01;;;;;;;2.12;2.01;;;;;;;2.59;84.29;99816.58;458517;115;922599;-70
2022/01/02 00:18:08;;;;;;;2.00;1.90;;;;;;;2.60;84.32;99820.92;457702;115;922675;-70
2022/01/02 00:19:20;;;;;;;2.34;2.18;;;;;;;2.61;84.22;99811.00;460283;115;923055;-71
2022/01/02 00:20:17;;;;;;;2.04;1.94;;;;;;;2.61;84.32;99811.00;457586;115;922706;-71
2022/01/02 00:21:21;;;;;;;2.46;2.26;;;;;;;2.61;84.34;99809.14;452597;115;922515;-71
2022/01/02 00:22:32;;;;;;;2.29;2.09;;;;;;;2.63;84.42;99817.89;457214;114;923413;-71
2022/01/02 00:23:40;;;;;;;2.16;1.96;;;;;;;2.64;84.45;99818.72;461357;114;922763;-71
2022/01/02 00:24:37;;;;;;;2.46;2.26;;;;;;;2.65;84.41;99813.14;460802;113;922663;-71
2022/01/02 00:25:42;;;;;;;2.86;2.66;;;;;;;2.68;84.48;99811.95;452083;116;922618;-71
2022/01/02 00:26:48;;;;;;;2.40;2.22;;;;;;;2.69;84.46;99821.70;458009;115;922582;-71
2022/01/02 00:27:52;;;;;;;2.40;2.20;;;;;;;2.69;84.44;99814.47;455625;114;923147;-71
2022/01/02 00:28:55;;;;;;;2.94;2.71;;;;;;;2.70;84.34;99818.00;456835;115;922722;-71
2022/01/02 00:29:59;;;;;;;3.02;2.83;;;;;;;2.70;84.44;99816.11;462178;113;922570;-71
2022/01/02 00:31:02;;;;;;;2.69;2.49;;;;;;;2.71;84.37;99817.79;457669;116;922612;-71
2022/01/02 00:32:07;;;;;;;3.08;2.88;;;;;;;2.71;84.35;99815.10;457202;114;922723;-71
2022/01/02 00:33:11;;;;;;;3.45;3.16;;;;;;;2.71;84.32;99814.27;456033;114;922661;-71
2022/01/02 00:34:15;;;;;;;2.76;2.56;;;;;;;2.71;84.32;99817.79;456924;116;923206;-72
2022/01/02 00:35:19;;;;;;;2.92;2.72;;;;;;;2.72;84.34;99818.63;457306;116;923021;-72
2022/01/02 00:36:24;;;;;;;3.29;3.00;;;;;;;2.72;84.36;99822.16;456640;115;926110;-72
2022/01/02 00:37:27;;;;;;;3.18;2.96;;;;;;;2.74;84.40;99821.98;453264;116;922504;-69
2022/01/02 00:38:30;;;;;;;2.83;2.63;;;;;;;2.75;84.36;99812.90;456657;114;922861;-71
2022/01/02 00:39:34;;;;;;;2.23;2.11;;;;;;;2.75;84.26;99811.05;453444;114;922759;-70
2022/01/02 00:40:40;;;;;;;2.40;2.22;;;;;;;2.74;84.15;99817.44;456062;114;922663;-70
2022/01/02 00:41:55;;;;;;;2.62;2.42;;;;;;;2.74;84.16;99812.06;457011;116;922530;-71
2022/01/02 00:43:02;;;;;;;2.51;2.31;;;;;;;2.73;84.22;99810.37;457541;115;923130;-71
2022/01/02 00:44:15;;;;;;;2.26;2.06;;;;;;;2.73;84.17;99812.23;456429;115;922696;-70
2022/01/02 00:45:27;;;;;;;2.77;2.57;;;;;;;2.72;84.15;99815.94;455129;114;923019;-71
2022/01/02 00:46:34;;;;;;;2.41;2.21;;;;;;;2.70;84.22;99810.73;457610;114;922616;-71
2022/01/02 00:47:44;;;;;;;3.33;2.96;;;;;;;2.70;84.22;99812.61;456332;114;923032;-71
2022/01/02 00:48:49;;;;;;;3.47;3.16;;;;;;;2.69;84.22;99813.62;456981;114;922580;-71
2022/01/02 00:50:11;;;;;;;2.94;2.74;;;;;;;2.68;84.23;99804.72;455341;116;922958;-71
2022/01/02 00:51:47;;;;;;;2.78;2.57;;;;;;;2.69;84.23;99810.94;454015;115;922788;-71
2022/01/02 00:52:49;;;;;;;2.53;2.33;;;;;;;2.70;84.25;99802.66;456925;114;922485;-70
2022/01/02 00:53:55;;;;;;;2.52;2.31;;;;;;;2.69;84.33;99803.70;450918;114;923078;-71
2022/01/02 00:54:59;;;;;;;3.07;2.74;;;;;;;2.69;84.33;99803.70;456648;113;922317;-75
2022/01/02 00:56:04;;;;;;;3.24;2.56;;;;;;;2.69;84.33;99802.86;457904;113;922410;-70
2022/01/02 00:57:11;;;;;;;2.97;2.52;;;;;;;2.70;84.35;99805.34;459544;115;930390;-70
2022/01/02 00:58:16;;;;;;;2.84;2.56;;;;;;;2.71;84.36;99806.19;457132;115;922958;-71
2022/01/02 00:59:28;;;;;;;2.64;2.43;;;;;;;2.70;84.34;99809.92;451790;116;922559;-72
2022/01/02 01:00:33;;;;;;;3.40;2.87;;;;;;;2.70;84.26;99812.61;465042;111;923312;-71
2022/01/02 01:01:39;;;;;;;2.59;2.39;;;;;;;2.70;84.27;99810.73;458716;113;923647;-71
2022/01/02 01:02:48;;;;;;;2.75;2.46;;;;;;;2.71;84.32;99817.79;465599;111;922849;-71
2022/01/02 01:03:54;;;;;;;2.69;2.13;;;;;;;2.73;84.24;99804.16;471351;111;922711;-71
2022/01/02 01:05:00;;;;;;;2.98;2.33;;;;;;;2.73;84.25;99806.85;470703;111;923174;-71
2022/01/02 01:06:04;;;;;;;3.29;2.26;;;;;;;2.72;84.24;99808.70;474492;111;922530;-71
2022/01/02 01:07:08;;;;;;;2.88;2.58;;;;;;;2.74;84.23;99809.37;472379;111;922475;-71
2022/01/02 01:08:11;;;;;;;3.46;2.70;;;;;;;2.76;84.29;99801.92;472462;111;930310;-70
2022/01/02 01:09:14;;;;;;;2.69;2.12;;;;;;;2.79;84.31;99812.34;471592;111;922888;-70
2022/01/02 01:10:19;;;;;;;2.91;2.54;;;;;;;2.81;84.27;99810.28;470724;111;922604;-71
2022/01/02 01:11:27;;;;;;;2.67;2.42;;;;;;;2.82;84.29;99801.19;471642;111;930563;-71
2022/01/02 01:12:31;;;;;;;3.00;2.46;;;;;;;2.87;84.33;99803.33;472852;111;922531;-71
2022/01/02 01:13:35;;;;;;;3.42;2.48;;;;;;;2.90;84.22;99809.20;470914;111;922599;-71
2022/01/02 01:14:40;;;;;;;3.22;2.48;;;;;;;2.91;84.16;99807.34;473569;111;922812;-72
2022/01/02 01:15:43;;;;;;;2.63;2.21;;;;;;;2.92;84.06;99814.41;471171;111;922553;-72
2022/01/02 01:16:47;;;;;;;3.38;2.54;;;;;;;2.93;84.08;99800.73;471186;110;922877;-72
2022/01/02 01:17:54;;;;;;;2.88;2.35;;;;;;;2.95;84.17;99811.34;471611;111;922418;-71
2022/01/02 01:18:58;;;;;;;3.45;2.77;;;;;;;2.98;84.20;99807.45;471146;111;922797;-71
2022/01/02 01:20:01;;;;;;;3.88;2.78;;;;;;;3.00;84.10;99808.08;471359;111;922487;-70
2022/01/02 01:21:05;;;;;;;2.79;2.50;;;;;;;3.00;83.98;99817.00;469686;111;922434;-71
2022/01/02 01:22:08;;;;;;;2.18;1.99;;;;;;;3.01;83.94;99810.59;472792;111;922502;-71
2022/01/02 01:23:16;;;;;;;2.85;2.22;;;;;;;3.03;84.00;99813.11;469660;111;922944;-70
2022/01/02 01:24:18;;;;;;;2.79;2.36;;;;;;;3.05;84.03;99811.05;471360;111;922466;-70
2022/01/02 01:25:23;;;;;;;2.52;2.32;;;;;;;3.08;84.08;99818.78;472846;111;922357;-71
2022/01/02 01:26:27;;;;;;;2.93;2.58;;;;;;;3.10;83.96;99808.64;472140;111;922521;-70
2022/01/02 01:27:32;;;;;;;2.60;2.24;;;;;;;3.11;83.84;99816.54;472153;111;922458;-70
2022/01/02 01:28:35;;;;;;;2.20;2.00;;;;;;;3.10;83.72;99819.41;473034;111;922897;-70
2022/01/02 01:29:38;;;;;;;1.82;1.72;;;;;;;3.11;83.68;99819.23;469820;111;922479;-71
2022/01/02 01:30:42;;;;;;;1.96;1.79;;;;;;;3.11;83.71;99813.84;471005;111;930349;-71
2022/01/02 01:31:46;;;;;;;2.08;1.91;;;;;;;3.12;83.75;99825.45;470157;111;922345;-70
2022/01/02 01:32:50;;;;;;;1.96;1.77;;;;;;;3.12;83.75;99823.60;472702;111;922366;-70
2022/01/02 01:33:53;;;;;;;1.95;1.82;;;;;;;3.14;83.82;99821.54;472811;111;922629;-70
2022/01/02 01:34:56;;;;;;;1.98;1.81;;;;;;;3.15;83.70;99825.91;471246;111;922526;-70
2022/01/02 01:36:00;;;;;;;2.24;2.04;;;;;;;3.16;83.71;99824.06;472234;111;922365;-71
2022/01/02 01:37:03;;;;;;;2.38;2.18;;;;;;;3.17;83.67;99828.43;464819;112;922628;-71
2022/01/02 01:38:09;;;;;;;1.86;1.74;;;;;;;3.15;83.61;99825.91;466630;112;922664;-70
2022/01/02 01:39:13;;;;;;;2.29;2.09;;;;;;;3.15;83.60;99830.46;468523;111;923225;-70
2022/01/02 01:40:17;;;;;;;1.69;1.49;;;;;;;3.14;83.62;99826.93;473836;111;922713;-70
2022/01/02 01:41:34;;;;;;;2.39;2.18;;;;;;;3.13;83.62;99827.13;469985;110;930135;-70
2022/01/02 01:42:44;;;;;;;1.79;1.62;;;;;;;3.13;83.64;99825.28;470641;111;923459;-71
2022/01/02 01:44:07;;;;;;;1.65;1.55;;;;;;;3.12;83.56;99834.37;462322;113;922672;-71
2022/01/02 01:46:13;;;;;;;1.52;1.42;;;;;;;3.08;83.47;99829.55;471053;111;922608;-71
2022/01/02 01:47:16;;;;;;;1.42;1.32;;;;;;;3.04;83.42;99828.22;470628;111;922984;-70
2022/01/02 01:48:19;;;;;;;1.02;0.99;;;;;;;3.01;83.45;99831.30;473314;111;922646;-70
2022/01/02 01:49:29;;;;;;;1.26;1.16;;;;;;;3.00;83.54;99835.01;469400;113;922549;-70
2022/01/02 01:50:37;;;;;;;1.75;1.65;;;;;;;2.98;83.60;99826.30;467141;111;922870;-71
2022/01/02 01:51:41;;;;;;;1.52;1.42;;;;;;;2.96;83.59;99826.47;467713;113;922639;-71
2022/01/02 01:52:45;;;;;;;1.49;1.39;;;;;;;2.95;83.62;99824.80;468026;113;923102;-71
2022/01/02 01:53:49;;;;;;;1.69;1.57;;;;;;;2.95;83.64;99830.19;466875;112;922746;-71
2022/01/02 01:54:53;;;;;;;1.56;1.46;;;;;;;2.96;83.58;99834.55;468067;113;923239;-71
2022/01/02 01:55:56;;;;;;;1.96;1.62;;;;;;;2.94;83.62;99831.20;467437;113;922826;-71
2022/01/02 01:57:02;;;;;;;1.63;1.53;;;;;;;2.92;83.59;99831.38;459509;113;922802;-71
2022/01/02 01:58:07;;;;;;;1.76;1.66;;;;;;;2.91;83.63;99837.80;453331;114;922621;-71
2022/01/02 01:59:14;;;;;;;3.66;3.36;;;;;;;2.90;83.70;99838.81;460480;111;923480;-71
2022/01/02 02:00:20;;;;;;;4.00;3.48;;;;;;;2.88;83.73;99838.16;467806;113;922575;-71
2022/01/02 02:01:24;;;;;;;3.35;3.05;;;;;;;2.87;83.72;99839.16;467075;112;922670;-71
2022/01/02 02:02:28;;;;;;;3.66;3.36;;;;;;;2.85;83.78;99835.84;466088;111;922678;-71
2022/01/02 02:03:32;;;;;;;3.42;2.79;;;;;;;2.85;83.82;99827.77;466997;113;923133;-71
2022/01/02 02:04:35;;;;;;;2.16;1.96;;;;;;;2.87;83.92;99831.09;459850;114;922718;-71
2022/01/02 02:05:39;;;;;;;2.30;2.04;;;;;;;2.88;83.96;99837.31;460469;113;923130;-71
2022/01/02 02:06:43;;;;;;;2.47;2.16;;;;;;;2.89;83.99;99831.75;466671;112;922997;-71
2022/01/02 02:07:46;;;;;;;2.03;1.83;;;;;;;2.90;84.02;99833.43;466912;113;922768;-71
2022/01/02 02:08:54;;;;;;;1.97;1.77;;;;;;;2.92;83.99;99828.68;467261;113;923026;-71
2022/01/02 02:11:03;;;;;;;1.31;1.21;;;;;;;2.90;83.90;99828.05;467426;112;922703;-71
2022/01/02 02:12:07;;;;;;;1.70;1.60;;;;;;;2.87;83.73;99832.94;467540;113;922728;-70
2022/01/02 02:13:13;;;;;;;1.49;1.39;;;;;;;2.85;83.75;99827.77;467940;113;922816;-71
2022/01/02 02:14:19;;;;;;;2.01;1.32;;;;;;;2.82;83.82;99835.35;466445;112;923032;-71
2022/01/02 02:15:23;;;;;;;1.25;1.16;;;;;;;2.80;83.86;99830.17;466624;113;923024;-71
2022/01/02 02:16:28;;;;;;;1.50;1.40;;;;;;;2.80;83.91;99827.48;467398;113;923466;-71
2022/01/02 02:17:33;;;;;;;1.48;1.38;;;;;;;2.79;83.96;99830.34;467150;113;922791;-71
2022/01/02 02:18:36;;;;;;;1.53;1.43;;;;;;;2.79;84.02;99835.73;467003;112;923053;-71
2022/01/02 02:19:39;;;;;;;1.38;1.28;;;;;;;2.80;84.05;99832.86;466703;112;922647;-71
2022/01/02 02:20:43;;;;;;;1.03;1.00;;;;;;;2.80;84.14;99838.25;466180;113;923237;-71
2022/01/02 02:21:48;;;;;;;2.18;1.58;;;;;;;2.80;84.06;99837.41;466912;112;922751;-71
2022/01/02 02:22:55;;;;;;;1.77;1.65;;;;;;;2.81;84.11;99833.70;468075;113;923453;-71
2022/01/02 02:23:58;;;;;;;1.69;1.57;;;;;;;2.81;84.07;99833.70;467517;113;923172;-71
2022/01/02 02:25:02;;;;;;;1.77;1.21;;;;;;;2.79;84.05;99828.49;468739;113;922644;-71
2022/01/02 02:26:05;;;;;;;1.34;1.27;;;;;;;2.79;84.03;99833.87;468030;112;922654;-70
2022/01/02 02:27:09;;;;;;;1.85;1.66;;;;;;;2.80;84.04;99832.86;466508;113;930529;-71
2022/01/02 02:28:16;;;;;;;1.52;1.42;;;;;;;2.80;84.00;99838.25;468599;113;923028;-70
2022/01/02 02:29:21;;;;;;;1.69;1.59;;;;;;;2.79;83.99;99841.12;467329;113;922596;-71
2022/01/02 02:30:28;;;;;;;1.45;1.35;;;;;;;2.77;84.09;99833.22;466792;113;922556;-71
2022/01/02 02:31:31;;;;;;;1.72;1.39;;;;;;;2.79;84.03;99835.73;465948;113;923064;-71
2022/01/02 02:32:35;;;;;;;1.81;1.71;;;;;;;2.79;84.00;99841.12;467996;113;922544;-71
2022/01/02 02:33:38;;;;;;;1.58;1.48;;;;;;;2.77;84.00;99832.38;467372;112;930409;-71
2022/01/02 02:34:42;;;;;;;1.59;1.49;;;;;;;2.74;84.03;99836.28;466813;113;930871;-71
2022/01/02 02:35:47;;;;;;;1.98;1.55;;;;;;;2.76;84.00;99838.77;467617;113;922515;-71
2022/01/02 02:36:51;;;;;;;1.89;1.79;;;;;;;2.75;84.07;99835.27;468128;113;922924;-71
2022/01/02 02:37:55;;;;;;;1.70;1.60;;;;;;;2.75;84.01;99839.81;467583;112;922962;-71
2022/01/02 02:38:58;;;;;;;1.61;1.51;;;;;;;2.74;83.96;99838.14;466003;111;922576;-70
2022/01/02 02:40:01;;;;;;;2.12;1.97;;;;;;;2.73;84.05;99833.77;467927;113;922964;-71
2022/01/02 02:41:05;;;;;;;2.31;2.14;;;;;;;2.72;84.00;99843.69;467184;113;922868;-71
2022/01/02 02:42:22;;;;;;;1.96;1.86;;;;;;;2.71;84.07;99839.32;466961;112;922506;-71
2022/01/02 02:44:35;;;;;;;2.42;2.23;;;;;;;2.72;84.12;99842.85;463712;113;922725;-71
2022/01/02 02:49:41;;;;;;;2.57;2.41;;;;;;;2.69;84.02;99841.38;467397;112;922696;-71
2022/01/02 02:50:46;;;;;;;2.06;1.92;;;;;;;2.65;83.86;99845.43;464436;112;922985;-71
2022/01/02 02:51:58;;;;;;;2.69;2.49;;;;;;;2.63;84.08;99847.48;464831;112;922944;-70
2022/01/02 02:53:02;;;;;;;2.69;2.47;;;;;;;2.62;84.11;99848.50;466985;111;922922;-70
2022/01/02 02:54:06;;;;;;;2.67;2.47;;;;;;;2.63;84.11;99857.41;465523;111;922761;-70
2022/01/02 02:55:10;;;;;;;2.44;2.24;;;;;;;2.62;84.14;99848.50;465608;112;922676;-70
2022/01/02 02:56:21;;;;;;;2.31;2.15;;;;;;;2.62;84.13;99861.12;465323;112;922740;-70
2022/01/02 02:57:23;;;;;;;1.90;1.80;;;;;;;2.61;84.13;99854.05;465074;112;930943;-71
2022/01/02 02:59:39;;;;;;;1.80;1.70;;;;;;;2.60;83.99;99863.14;467022;112;922456;-71
2022/01/02 03:00:42;;;;;;;1.22;1.12;;;;;;;2.58;83.90;99862.50;465835;112;922910;-69
2022/01/02 03:01:46;;;;;;;1.62;1.52;;;;;;;2.55;83.93;99858.30;465569;112;923524;-70
2022/01/02 03:02:49;;;;;;;1.40;1.30;;;;;;;2.55;83.97;99866.38;465531;111;930376;-70
2022/01/02 03:03:53;;;;;;;1.27;1.19;;;;;;;2.54;84.02;99870.08;463424;112;922648;-70
2022/01/02 03:04:56;;;;;;;1.19;1.18;;;;;;;2.54;83.99;99869.27;466512;111;922623;-70
2022/01/02 03:06:00;;;;;;;1.13;1.03;;;;;;;2.54;83.94;99870.08;466405;111;922641;-70
2022/01/02 03:07:03;;;;;;;0.80;0.80;;;;;;;2.53;83.79;99870.28;465033;112;922626;-70
2022/01/02 03:08:07;;;;;;;0.86;0.86;;;;;;;2.51;83.82;99865.91;462955;112;923023;-70
2022/01/02 03:09:10;;;;;;;0.77;0.77;;;;;;;2.50;83.84;99869.62;463072;111;923056;-70
2022/01/02 03:10:16;;;;;;;0.87;0.87;;;;;;;2.49;83.83;99876.01;465693;112;922634;-71
2022/01/02 03:11:21;;;;;;;0.86;0.86;;;;;;;2.48;83.78;99877.02;466714;112;922604;-69
2022/01/02 03:12:25;;;;;;;0.77;0.77;;;;;;;2.46;83.82;99880.92;466753;111;922878;-69
2022/01/02 03:13:28;;;;;;;0.89;0.89;;;;;;;2.45;83.90;99876.55;464983;112;922504;-70
2022/01/02 03:14:32;;;;;;;0.90;0.90;;;;;;;2.44;83.75;99882.95;461080;114;922707;-71
2022/01/02 03:15:35;;;;;;;0.79;0.79;;;;;;;2.43;83.80;99883.95;461537;112;923612;-69
2022/01/02 03:16:39;;;;;;;0.54;0.54;;;;;;;2.41;83.82;99892.23;466965;112;930365;-70
2022/01/02 03:17:43;;;;;;;0.75;0.75;;;;;;;2.40;83.83;99887.02;465720;112;930192;-71
2022/01/02 03:18:46;;;;;;;0.53;0.50;;;;;;;2.39;83.82;99888.88;464105;112;923132;-70
2022/01/02 03:19:50;;;;;;;0.80;0.80;;;;;;;2.39;83.90;99888.03;466625;112;930174;-70
2022/01/02 03:20:54;;;;;;;0.66;0.58;;;;;;;2.39;83.96;99886.18;465871;111;922680;-71
2022/01/02 03:21:58;;;;;;;0.68;0.51;;;;;;;2.40;84.07;99884.33;464923;112;923022;-70
2022/01/02 03:23:02;;;;;;;0.52;0.52;;;;;;;2.41;84.08;99889.54;466130;112;922793;-70
2022/01/02 03:24:05;;;;;;;0.50;0.50;;;;;;;2.42;84.06;99890.38;469078;112;922611;-71
2022/01/02 03:25:13;;;;;;;0.41;0.41;;;;;;;2.44;84.06;99885.64;464372;112;922936;-70
2022/01/02 03:26:14;;;;;;;0.51;0.51;;;;;;;2.44;84.02;99885.64;465816;111;923052;-70
2022/01/02 03:27:17;;;;;;;0.38;0.38;;;;;;;2.43;84.14;99892.03;464707;112;923186;-68
2022/01/02 03:28:21;;;;;;;0.60;0.60;;;;;;;2.44;84.17;99888.33;466458;112;922810;-70
2022/01/02 03:29:24;;;;;;;0.51;0.51;;;;;;;2.45;84.23;99892.70;465589;111;922580;-71
2022/01/02 03:30:28;;;;;;;0.75;0.75;;;;;;;2.46;84.23;99895.22;467052;112;922508;-68
2022/01/02 03:31:32;;;;;;;0.48;0.48;;;;;;;2.48;84.24;99897.73;465545;112;923277;-69
2022/01/02 03:32:35;;;;;;;0.65;0.65;;;;;;;2.49;84.23;99902.91;465314;111;930291;-69
2022/01/02 03:33:39;;;;;;;0.60;0.60;;;;;;;2.49;84.23;99902.91;463810;112;923118;-70
2022/01/02 03:34:42;;;;;;;0.78;0.60;;;;;;;2.49;84.13;99905.61;465319;112;922573;-70
2022/01/02 03:35:45;;;;;;;0.79;0.79;;;;;;;2.49;84.13;99910.15;467677;112;923017;-70
2022/01/02 03:36:49;;;;;;;0.73;0.71;;;;;;;2.47;84.14;99913.05;466091;111;923570;-70
2022/01/02 03:37:52;;;;;;;0.53;0.52;;;;;;;2.49;84.08;99921.75;465942;112;930232;-71
2022/01/02 03:38:55;;;;;;;0.64;0.64;;;;;;;2.47;83.96;99915.73;464948;112;922736;-71
2022/01/02 03:40:00;;;;;;;0.91;0.72;;;;;;;2.47;83.96;99920.27;465996;111;922589;-70
2022/01/02 03:41:05;;;;;;;0.81;0.81;;;;;;;2.45;83.98;99919.60;466593;111;923140;-70
2022/01/02 03:42:08;;;;;;;0.69;0.69;;;;;;;2.44;83.96;99916.07;465953;112;922665;-70
2022/01/02 03:43:11;;;;;;;0.92;0.87;;;;;;;2.45;84.01;99922.30;464888;112;922496;-69
2022/01/02 03:44:15;;;;;;;2.19;0.54;;;;;;;2.45;84.07;99922.30;465348;111;923648;-70
2022/01/02 03:45:18;;;;;;;1.21;1.10;;;;;;;2.47;84.21;99917.58;466063;111;922825;-69
2022/01/02 03:46:22;;;;;;;0.86;0.70;;;;;;;2.50;84.18;99930.66;466256;112;922540;-70
2022/01/02 03:47:27;;;;;;;0.85;0.82;;;;;;;2.51;84.19;99922.42;453909;115;930192;-70
2022/01/02 03:48:32;;;;;;;1.02;0.71;;;;;;;2.53;84.16;99921.41;456807;114;922586;-70
2022/01/02 03:49:37;;;;;;;1.20;1.10;;;;;;;2.54;84.15;99931.16;452230;115;930359;-70
2022/01/02 03:50:41;;;;;;;1.20;1.09;;;;;;;2.55;84.17;99928.27;460188;114;923019;-70
2022/01/02 03:51:45;;;;;;;1.44;1.02;;;;;;;2.55;84.13;99928.27;451568;116;922917;-70
2022/01/02 03:52:48;;;;;;;1.64;0.96;;;;;;;2.56;83.79;99929.11;451894;116;927503;-70
2022/01/02 03:53:51;;;;;;;1.19;1.09;;;;;;;2.54;83.69;99926.59;443537;116;923184;-70
2022/01/02 03:54:55;;;;;;;1.19;0.99;;;;;;;2.52;83.63;99928.64;440736;117;923030;-70
2022/01/02 03:55:58;;;;;;;1.11;0.90;;;;;;;2.49;83.62;99932.52;446931;116;922981;-69
2022/01/02 03:57:02;;;;;;;1.61;1.10;;;;;;;2.48;83.74;99936.22;442657;117;922802;-70
2022/01/02 03:58:06;;;;;;;1.22;1.12;;;;;;;2.50;83.77;99933.36;447838;116;922618;-70
2022/01/02 03:59:09;;;;;;;0.99;0.96;;;;;;;2.51;83.67;99943.11;456546;114;922983;-70
2022/01/02 04:00:14;;;;;;;1.17;1.05;;;;;;;2.49;83.43;99937.90;457985;114;922597;-70
2022/01/02 04:01:18;;;;;;;1.63;1.08;;;;;;;2.47;83.40;99936.42;443367;118;922991;-70
2022/01/02 04:02:22;;;;;;;1.22;1.12;;;;;;;2.45;83.45;99947.34;441425;115;923904;-70
2022/01/02 04:03:25;;;;;;;1.14;1.04;;;;;;;2.44;83.50;99950.21;451301;116;930218;-70
2022/01/02 04:04:29;;;;;;;0.89;0.86;;;;;;;2.43;83.56;99943.98;449910;116;922656;-70
2022/01/02 04:05:32;;;;;;;0.89;0.79;;;;;;;2.44;83.47;99947.52;448586;115;922539;-70
2022/01/02 04:06:35;;;;;;;1.01;0.87;;;;;;;2.43;83.53;99948.53;445482;115;922791;-70
2022/01/02 04:07:40;;;;;;;0.57;0.54;;;;;;;2.43;83.51;99952.06;451382;115;922961;-70
2022/01/02 04:08:44;;;;;;;0.74;0.74;;;;;;;2.42;83.19;99952.26;451914;115;923049;-70
2022/01/02 04:09:48;;;;;;;0.70;0.70;;;;;;;2.41;83.23;99954.11;457901;114;922618;-70
2022/01/02 04:10:52;;;;;;;0.46;0.46;;;;;;;2.42;83.27;99954.95;455552;114;922572;-70
2022/01/02 04:11:55;;;;;;;0.36;0.36;;;;;;;2.41;83.38;99961.34;457423;114;922574;-69
2022/01/02 04:12:58;;;;;;;0.56;0.41;;;;;;;2.41;83.19;99964.88;457811;114;930257;-70
2022/01/02 04:14:02;;;;;;;0.48;0.47;;;;;;;2.42;83.25;99958.48;455469;116;930187;-70
2022/01/02 04:15:08;;;;;;;0.50;0.50;;;;;;;2.42;83.41;99961.17;452848;116;923116;-70
2022/01/02 04:16:11;;;;;;;0.50;0.50;;;;;;;2.43;83.18;99964.67;442762;116;930272;-70
2022/01/02 04:17:15;;;;;;;0.49;0.49;;;;;;;2.42;83.15;99963.02;456126;115;922700;-70
2022/01/02 04:18:18;;;;;;;0.57;0.47;;;;;;;2.41;83.22;99961.34;453823;115;922768;-70
2022/01/02 04:19:21;;;;;;;0.60;0.57;;;;;;;2.40;83.19;99965.04;454554;115;922704;-69
2022/01/02 04:20:25;;;;;;;0.50;0.50;;;;;;;2.37;83.58;99974.28;453815;115;923145;-69
2022/01/02 04:21:29;;;;;;;0.50;0.50;;;;;;;2.35;83.50;99973.64;459451;114;923316;-70
2022/01/02 04:22:33;;;;;;;0.61;0.61;;;;;;;2.34;83.65;99976.50;457567;114;923081;-70
2022/01/02 04:23:38;;;;;;;1.22;0.71;;;;;;;2.35;83.72;99978.19;460212;113;923770;-69
2022/01/02 04:24:41;;;;;;;0.56;0.56;;;;;;;2.35;83.31;99978.19;446529;115;922820;-70
2022/01/02 04:25:44;;;;;;;0.51;0.51;;;;;;;2.33;83.33;99985.58;451841;115;930234;-70
2022/01/02 04:26:48;;;;;;;0.72;0.72;;;;;;;2.33;83.32;99980.20;450916;115;922524;-70
2022/01/02 04:27:53;;;;;;;0.70;0.70;;;;;;;2.31;83.41;99993.85;453274;115;923086;-71
2022/01/02 04:28:56;;;;;;;0.54;0.54;;;;;;;2.31;83.52;99987.63;460393;113;922694;-69
2022/01/02 04:29:59;;;;;;;0.76;0.74;;;;;;;2.29;83.54;99993.18;460846;114;922880;-69
2022/01/02 04:31:02;;;;;;;0.56;0.56;;;;;;;2.29;83.49;99989.64;459773;114;930254;-71
2022/01/02 04:32:06;;;;;;;0.61;0.60;;;;;;;2.28;83.54;99991.50;458579;113;923143;-69
2022/01/02 04:33:10;;;;;;;0.62;0.59;;;;;;;2.26;84.09;99998.09;459622;114;923093;-70
2022/01/02 04:34:13;;;;;;;0.80;0.80;;;;;;;2.25;84.24;99993.71;461254;114;930425;-70
2022/01/02 04:35:17;;;;;;;0.69;0.69;;;;;;;2.24;84.11;100000.10;460507;114;922548;-69
2022/01/02 04:36:21;;;;;;;0.62;0.62;;;;;;;2.23;83.98;99995.73;458378;114;930255;-71
2022/01/02 04:37:25;;;;;;;0.52;0.52;;;;;;;2.19;83.87;99997.10;461936;114;922681;-69
2022/01/02 04:38:28;;;;;;;0.62;0.62;;;;;;;2.17;84.02;100010.71;464523;114;923120;-69
2022/01/02 04:39:33;;;;;;;0.70;0.70;;;;;;;2.18;84.08;100008.86;457667;113;922640;-70
2022/01/02 04:40:37;;;;;;;0.87;0.87;;;;;;;2.18;84.21;100011.55;455846;115;923468;-70
2022/01/02 04:41:42;;;;;;;0.87;0.84;;;;;;;2.19;84.17;100021.30;456750;115;930023;-71
2022/01/02 04:42:45;;;;;;;0.66;0.66;;;;;;;2.18;84.22;100027.69;457778;114;922569;-71
2022/01/02 04:43:49;;;;;;;0.68;0.68;;;;;;;2.18;83.84;100025.00;452590;116;922900;-71
2022/01/02 04:44:53;;;;;;;0.61;0.61;;;;;;;2.17;83.28;100029.54;449222;116;930361;-70
2022/01/02 04:45:56;;;;;;;0.74;0.74;;;;;;;2.17;83.24;100031.39;455918;115;922837;-70
2022/01/02 04:47:00;;;;;;;0.75;0.75;;;;;;;2.16;83.19;100035.92;452549;116;922570;-72
2022/01/02 04:48:03;;;;;;;0.88;0.88;;;;;;;2.15;83.18;100039.62;449987;116;930322;-70
2022/01/02 04:49:07;;;;;;;0.84;0.69;;;;;;;2.14;83.21;100045.19;462367;114;922616;-69
2022/01/02 04:50:10;;;;;;;0.83;0.83;;;;;;;2.12;83.12;100037.29;451326;116;930253;-69
2022/01/02 04:51:14;;;;;;;0.68;0.68;;;;;;;2.12;83.02;100049.90;446817;117;922576;-71
2022/01/02 04:52:17;;;;;;;0.66;0.65;;;;;;;2.11;82.98;100038.30;449793;117;922722;-71
2022/01/02 04:53:21;;;;;;;0.95;0.95;;;;;;;2.08;82.19;100047.56;445993;118;922608;-71
2022/01/02 04:54:25;;;;;;;0.78;0.78;;;;;;;2.06;82.41;100052.27;443278;119;923330;-71
2022/01/02 04:55:28;;;;;;;1.17;1.07;;;;;;;2.05;82.59;100055.97;451084;115;922603;-71
2022/01/02 04:56:32;;;;;;;0.99;0.99;;;;;;;2.05;82.83;100052.44;455725;116;930272;-69
2022/01/02 04:57:35;;;;;;;1.17;1.08;;;;;;;2.04;82.80;100056.16;451416;117;930213;-71
2022/01/02 04:58:39;;;;;;;0.95;0.81;;;;;;;2.02;82.66;100060.86;451929;115;922766;-70
2022/01/02 04:59:42;;;;;;;0.80;0.80;;;;;;;2.04;82.85;100067.73;450865;115;930316;-69
2022/01/02 05:00:45;;;;;;;1.89;1.01;;;;;;;2.04;82.71;100070.41;453949;114;922563;-70
2022/01/02 05:01:49;;;;;;;1.32;1.22;;;;;;;2.06;82.90;100067.56;456837;115;923634;-71
2022/01/02 05:02:53;;;;;;;1.24;1.18;;;;;;;2.07;82.91;100077.31;456499;114;922684;-70
2022/01/02 05:03:57;;;;;;;1.07;0.73;;;;;;;2.06;82.59;100073.78;449526;117;930113;-69
2022/01/02 05:05:01;;;;;;;0.96;0.84;;;;;;;2.08;82.63;100077.15;451551;117;922572;-69
2022/01/02 05:06:06;;;;;;;1.11;1.00;;;;;;;2.08;82.38;100078.99;450344;116;930180;-71
2022/01/02 05:07:13;;;;;;;0.92;0.90;;;;;;;2.05;82.54;100077.47;449583;117;922645;-69
2022/01/02 05:08:15;;;;;;;1.03;0.99;;;;;;;2.07;82.74;100074.63;458535;115;923038;-71
2022/01/02 05:09:19;;;;;;;0.94;0.91;;;;;;;2.08;82.84;100073.62;459987;113;922654;-70
2022/01/02 05:10:23;;;;;;;1.05;1.03;;;;;;;2.09;82.75;100086.05;454481;115;922628;-70
2022/01/02 05:11:26;;;;;;;1.06;0.95;;;;;;;2.10;82.68;100088.55;449860;117;922652;-70
2022/01/02 05:12:30;;;;;;;0.93;0.91;;;;;;;2.11;82.05;100092.08;447225;118;922866;-70